Terminal Aerodrome Forecast
Issued by NWS Shreveport, LA

Current Version | Previous Version | Text Only | Print | Product List | Glossary On
Versions: 1 2 3 4 5 6 7 8 9 10 11 12 13 14
016
FTUS44 KSHV 182331
TAFELD
TAF
KELD 182331Z 1900/1924 15006KT P6SM SCT120
      TEMPO 1900/1902 15012G20KT BKN060
     FM191200 13006KT P6SM BKN100 BKN250
     FM192000 15010KT P6SM VCTS BKN060CB=

USA.gov is the U.S. government's official web portal to all federal, state and local government web resources and services.